createdAt,value
2018-06-27T00:01:57.511Z,8.70
2018-06-27T00:04:26.597Z,10.20
2018-06-27T00:06:55.712Z,10.47
2018-06-27T00:09:25.125Z,10.47
2018-06-27T00:11:54.232Z,10.47
2018-06-27T00:14:23.316Z,10.00
2018-06-27T00:16:52.476Z,9.10
2018-06-27T00:19:21.615Z,10.63
2018-06-27T00:21:50.673Z,9.27
2018-06-27T00:24:19.753Z,11.17
2018-06-27T00:26:48.856Z,10.60
2018-06-27T00:29:17.936Z,8.87
2018-06-27T00:31:47.020Z,9.73
2018-06-27T00:34:16.120Z,10.17
2018-06-27T00:36:45.209Z,8.70
2018-06-27T00:39:14.304Z,8.73
2018-06-27T00:41:43.380Z,8.57
2018-06-27T00:44:12.481Z,9.10
2018-06-27T00:46:41.565Z,9.60
2018-06-27T00:49:10.666Z,8.40
2018-06-27T00:51:39.748Z,8.10
2018-06-27T00:54:09.761Z,8.67
2018-06-27T00:56:41.700Z,8.17
2018-06-27T00:59:10.808Z,8.47
2018-06-27T01:01:39.977Z,8.23
2018-06-27T01:04:09.089Z,8.97
2018-06-27T01:06:38.182Z,7.50
2018-06-27T01:09:08.711Z,7.77
2018-06-27T01:11:37.805Z,6.83
2018-06-27T01:14:06.893Z,7.00
2018-06-27T01:16:35.960Z,7.87
2018-06-27T01:19:05.162Z,7.57
2018-06-27T01:21:34.294Z,8.10
2018-06-27T01:24:03.395Z,8.90
2018-06-27T01:26:32.465Z,9.73
2018-06-27T01:29:01.557Z,9.03
2018-06-27T01:31:30.628Z,7.70
2018-06-27T01:33:59.725Z,6.83
2018-06-27T01:36:28.833Z,6.63
2018-06-27T01:38:57.959Z,6.70
2018-06-27T01:41:27.023Z,6.10
2018-06-27T01:43:56.087Z,6.30
2018-06-27T01:46:25.184Z,6.07
2018-06-27T01:48:54.464Z,6.00
2018-06-27T01:51:23.565Z,6.13
2018-06-27T01:53:52.721Z,7.03
2018-06-27T01:56:21.760Z,7.90
2018-06-27T01:58:50.840Z,6.53
2018-06-27T02:01:19.936Z,7.50
2018-06-27T02:03:49.009Z,7.90
2018-06-27T02:06:18.155Z,9.60
2018-06-27T02:08:47.227Z,9.40
2018-06-27T02:11:16.329Z,10.27
2018-06-27T02:13:45.399Z,10.13
2018-06-27T02:16:14.504Z,10.23
2018-06-27T02:18:43.572Z,8.70
2018-06-27T02:21:12.663Z,8.50
2018-06-27T02:23:41.764Z,9.53
2018-06-27T02:26:10.870Z,9.43
2018-06-27T02:28:39.944Z,9.70
2018-06-27T02:31:09.209Z,9.33
2018-06-27T02:33:38.277Z,8.80
2018-06-27T02:36:07.377Z,9.63
2018-06-27T02:38:36.447Z,9.53
2018-06-27T02:41:05.544Z,9.10
2018-06-27T02:43:34.616Z,8.93
2018-06-27T02:46:03.744Z,8.77
2018-06-27T02:48:32.825Z,9.43
2018-06-27T02:51:02.722Z,10.80
2018-06-27T02:53:37.125Z,10.53
2018-06-27T02:56:07.765Z,13.60
2018-06-27T02:58:36.856Z,14.60
2018-06-27T03:01:06.053Z,12.80
2018-06-27T03:03:35.136Z,10.70
2018-06-27T03:06:04.221Z,9.20
2018-06-27T03:08:33.317Z,9.20
2018-06-27T03:11:02.409Z,7.50
2018-06-27T03:13:31.516Z,6.50
2018-06-27T03:16:00.625Z,6.70
2018-06-27T03:18:29.763Z,9.70
2018-06-27T03:20:58.965Z,10.85
2018-06-27T03:23:28.105Z,7.77
2018-06-27T03:25:57.252Z,12.23
2018-06-27T03:28:26.389Z,12.80
2018-06-27T03:30:55.519Z,13.90
2018-06-27T03:33:24.633Z,12.75
2018-06-27T03:35:53.784Z,13.93
2018-06-27T03:38:22.917Z,12.88
2018-06-27T03:40:52.077Z,14.80
2018-06-27T03:43:21.289Z,16.32
2018-06-27T03:45:50.389Z,14.30
2018-06-27T03:48:19.519Z,14.57
2018-06-27T03:50:48.624Z,14.73
2018-06-27T03:53:17.771Z,15.00
2018-06-27T03:55:46.860Z,14.70
2018-06-27T03:58:16.036Z,14.65
2018-06-27T04:00:45.213Z,14.85
2018-06-27T04:03:14.536Z,13.07
2018-06-27T04:05:43.616Z,12.05
2018-06-27T04:08:12.728Z,12.97
2018-06-27T04:10:41.999Z,11.53
2018-06-27T04:13:11.215Z,11.50
2018-06-27T04:15:40.293Z,13.05
2018-06-27T04:18:09.503Z,12.00
2018-06-27T04:20:38.603Z,13.35
2018-06-27T04:23:07.709Z,13.50
2018-06-27T04:25:36.881Z,13.48
2018-06-27T04:28:06.304Z,13.58
2018-06-27T04:30:35.412Z,13.17
2018-06-27T04:33:04.581Z,14.60
2018-06-27T04:35:34.213Z,14.10
2018-06-27T04:38:03.704Z,15.30
2018-06-27T04:40:32.852Z,14.13
2018-06-27T04:43:01.965Z,16.20
2018-06-27T04:45:31.065Z,16.10
2018-06-27T04:48:00.164Z,16.80
2018-06-27T04:50:29.740Z,17.00
2018-06-27T04:52:58.952Z,16.50
2018-06-27T04:55:28.102Z,16.20
2018-06-27T04:57:57.190Z,17.63
2018-06-27T05:00:26.296Z,17.07
2018-06-27T05:02:55.428Z,16.70
2018-06-27T05:05:25.061Z,16.87
2018-06-27T05:07:54.756Z,17.48
2018-06-27T05:10:23.889Z,18.73
2018-06-27T05:12:53.119Z,17.93
2018-06-27T05:15:22.264Z,19.50
2018-06-27T05:17:51.371Z,19.20
2018-06-27T05:20:20.488Z,19.17
2018-06-27T05:22:49.572Z,17.60
2018-06-27T05:25:18.676Z,18.37
2018-06-27T05:27:47.769Z,18.13
2018-06-27T05:30:16.958Z,19.40
2018-06-27T05:32:46.047Z,18.83
2018-06-27T05:35:15.161Z,18.50
2018-06-27T05:37:44.260Z,18.32
2018-06-27T05:40:13.376Z,18.67
2018-06-27T05:42:42.455Z,18.73
2018-06-27T05:45:11.569Z,19.15
2018-06-27T05:47:40.649Z,20.37
2018-06-27T05:50:10.052Z,19.75
2018-06-27T05:52:39.148Z,21.40
2018-06-27T05:55:09.517Z,20.23
2018-06-27T05:57:40.316Z,20.23
2018-06-27T06:00:10.324Z,21.27
2018-06-27T06:02:39.436Z,21.03
2018-06-27T06:05:08.653Z,21.70
2018-06-27T06:07:37.764Z,24.77
2018-06-27T06:10:06.922Z,24.57
2018-06-27T06:12:36.233Z,25.83
2018-06-27T06:15:06.992Z,25.13
2018-06-27T06:17:36.192Z,25.97
2018-06-27T06:20:05.284Z,26.47
2018-06-27T06:22:34.560Z,26.47
2018-06-27T06:25:03.720Z,26.10
2018-06-27T06:27:32.852Z,25.53
2018-06-27T06:30:01.940Z,27.43
2018-06-27T06:32:31.161Z,24.85
2018-06-27T06:35:00.140Z,24.53
2018-06-27T06:37:29.268Z,23.50
2018-06-27T06:39:58.384Z,24.40
2018-06-27T06:42:27.492Z,25.63
2018-06-27T06:44:57.631Z,26.97
2018-06-27T06:47:26.829Z,32.00
2018-06-27T06:49:55.920Z,29.45
2018-06-27T06:52:25.115Z,33.13
2018-06-27T06:54:54.248Z,32.73
2018-06-27T06:57:23.424Z,33.37
2018-06-27T06:59:52.516Z,36.08
2018-06-27T07:02:21.625Z,32.60
2018-06-27T07:04:50.740Z,33.15
2018-06-27T07:07:19.860Z,34.23
2018-06-27T07:09:49.672Z,32.63
2018-06-27T07:12:18.780Z,33.07
2018-06-27T07:14:47.868Z,31.60
2018-06-27T07:17:16.989Z,33.60
2018-06-27T07:19:46.245Z,33.03
2018-06-27T07:22:15.342Z,31.87
2018-06-27T07:24:44.485Z,29.32
2018-06-27T07:27:13.722Z,29.03
2018-06-27T07:29:42.837Z,30.17
2018-06-27T07:32:11.940Z,26.55
2018-06-27T07:34:41.029Z,27.30
2018-06-27T07:37:10.254Z,27.47
2018-06-27T07:39:39.366Z,27.90
2018-06-27T07:42:09.388Z,25.50
2018-06-27T07:44:38.480Z,22.20
2018-06-27T07:47:07.844Z,25.43
2018-06-27T07:49:37.572Z,25.23
2018-06-27T07:52:07.037Z,25.27
2018-06-27T07:54:39.747Z,24.02
2018-06-27T07:57:10.917Z,25.27
2018-06-27T07:59:40.145Z,23.32
2018-06-27T08:02:09.557Z,22.23
2018-06-27T08:04:39.804Z,22.17
2018-06-27T08:07:08.833Z,22.27
2018-06-27T08:09:38.002Z,21.03
2018-06-27T08:12:07.728Z,19.80
2018-06-27T08:14:37.029Z,19.20
2018-06-27T08:17:06.715Z,20.53
2018-06-27T08:19:36.050Z,18.20
2018-06-27T08:22:05.516Z,16.85
2018-06-27T08:24:34.753Z,18.53
2018-06-27T08:27:04.106Z,17.82
2018-06-27T08:29:33.768Z,18.37
2018-06-27T08:32:02.955Z,15.03
2018-06-27T08:34:32.056Z,13.57
2018-06-27T08:37:00.885Z,14.30
2018-06-27T08:39:30.240Z,14.47
2018-06-27T08:41:59.854Z,14.07
2018-06-27T08:44:29.187Z,11.93
2018-06-27T08:46:58.370Z,13.32
2018-06-27T08:49:27.656Z,12.45
2018-06-27T08:51:56.760Z,12.65
2018-06-27T08:54:26.026Z,11.48
2018-06-27T08:56:55.113Z,10.53
2018-06-27T08:59:24.636Z,9.60
2018-06-27T09:01:53.822Z,5.90
2018-06-27T09:04:22.909Z,8.10
2018-06-27T09:06:52.023Z,8.90
2018-06-27T09:09:21.268Z,8.25
2018-06-27T09:11:50.578Z,6.08
2018-06-27T09:14:19.756Z,6.10
2018-06-27T09:16:48.840Z,5.22
2018-06-27T09:19:18.021Z,5.53
2018-06-27T09:21:47.177Z,4.60
2018-06-27T09:24:17.827Z,5.45
2018-06-27T09:26:46.998Z,6.47
2018-06-27T09:29:16.088Z,6.07
2018-06-27T09:31:45.426Z,6.60
2018-06-27T09:34:15.336Z,6.33
2018-06-27T09:36:44.714Z,6.00
2018-06-27T09:39:14.055Z,7.12
2018-06-27T09:41:43.367Z,8.00
2018-06-27T09:44:13.041Z,8.33
2018-06-27T09:46:42.159Z,9.15
2018-06-27T09:49:11.397Z,7.45
2018-06-27T09:51:41.361Z,6.65
2018-06-27T09:54:10.478Z,6.90
2018-06-27T09:56:39.619Z,6.40
2018-06-27T09:59:08.761Z,8.40
2018-06-27T10:01:37.877Z,7.60
2018-06-27T10:04:06.965Z,8.10
2018-06-27T10:06:36.064Z,6.47
2018-06-27T10:09:07.710Z,8.13
2018-06-27T10:11:36.810Z,7.23
2018-06-27T10:14:05.936Z,7.07
2018-06-27T10:16:35.073Z,7.93
2018-06-27T10:19:04.156Z,7.27
2018-06-27T10:21:33.265Z,8.17
2018-06-27T10:24:02.344Z,6.77
2018-06-27T10:26:31.447Z,6.73
2018-06-27T10:29:00.524Z,5.90
2018-06-27T10:31:29.628Z,6.57
2018-06-27T10:33:58.716Z,4.90
2018-06-27T10:36:27.817Z,5.27
2018-06-27T10:38:56.916Z,7.63
2018-06-27T10:41:26.013Z,5.80
2018-06-27T10:43:55.554Z,5.30
2018-06-27T10:46:25.286Z,6.33
2018-06-27T10:48:55.134Z,3.93
2018-06-27T10:51:25.225Z,4.50
2018-06-27T10:53:55.097Z,3.77
2018-06-27T10:56:24.400Z,4.17
2018-06-27T10:58:53.593Z,3.50
2018-06-27T11:01:23.499Z,1.80
2018-06-27T11:03:52.946Z,2.43
2018-06-27T11:06:22.063Z,2.03
2018-06-27T11:08:51.244Z,1.67
2018-06-27T11:11:20.929Z,1.87
2018-06-27T11:13:50.661Z,1.80
2018-06-27T11:16:19.954Z,1.73
2018-06-27T11:18:49.922Z,2.20
2018-06-27T11:21:19.033Z,1.57
2018-06-27T11:23:48.141Z,1.37
2018-06-27T11:26:17.217Z,1.20
2018-06-27T11:28:46.321Z,1.00
2018-06-27T11:31:15.415Z,1.30
2018-06-27T11:33:44.511Z,1.63
2018-06-27T11:36:13.596Z,1.83
2018-06-27T11:38:42.745Z,1.20
2018-06-27T11:41:11.790Z,1.27
2018-06-27T11:43:40.892Z,0.90
2018-06-27T11:46:10.017Z,1.30
2018-06-27T11:48:39.108Z,1.37
2018-06-27T11:51:08.208Z,1.70
2018-06-27T11:53:37.329Z,1.00
2018-06-27T11:56:06.423Z,1.07
2018-06-27T11:58:35.504Z,1.40
2018-06-27T12:01:04.569Z,1.07
2018-06-27T12:03:33.668Z,0.90
2018-06-27T12:06:02.747Z,1.00
2018-06-27T12:08:31.812Z,0.77
2018-06-27T12:11:00.900Z,1.00
2018-06-27T12:13:29.976Z,1.20
2018-06-27T12:15:59.077Z,0.97
2018-06-27T12:18:28.182Z,1.00
2018-06-27T12:20:57.268Z,1.00
2018-06-27T12:23:26.347Z,0.90
2018-06-27T12:25:55.462Z,0.70
2018-06-27T12:28:24.537Z,0.90
2018-06-27T12:30:53.673Z,0.97
2018-06-27T12:33:23.471Z,0.83
2018-06-27T12:35:52.646Z,1.00
2018-06-27T12:38:21.717Z,0.90
2018-06-27T12:40:50.801Z,1.00
2018-06-27T12:43:19.914Z,1.00
2018-06-27T12:45:49.001Z,1.10
2018-06-27T12:48:18.068Z,0.80
2018-06-27T12:50:47.182Z,1.07
2018-06-27T12:53:16.232Z,1.00
2018-06-27T12:55:45.344Z,1.27
2018-06-27T12:58:14.412Z,0.83
2018-06-27T13:00:43.508Z,0.90
2018-06-27T13:03:12.620Z,0.77
2018-06-27T13:05:41.716Z,1.20
2018-06-27T13:08:10.789Z,1.10
2018-06-27T13:10:39.876Z,1.03
2018-06-27T13:13:08.948Z,0.90
2018-06-27T13:15:38.046Z,1.03
2018-06-27T13:18:07.500Z,0.80
2018-06-27T13:20:36.652Z,0.70
2018-06-27T13:23:05.932Z,0.90
2018-06-27T13:25:35.026Z,0.90
2018-06-27T13:28:04.104Z,0.97
2018-06-27T13:30:33.196Z,1.00
2018-06-27T13:33:02.273Z,0.90
2018-06-27T13:35:31.436Z,0.90
2018-06-27T13:38:00.508Z,0.97
2018-06-27T13:40:29.590Z,1.10
2018-06-27T13:42:58.688Z,1.00
2018-06-27T13:45:27.754Z,1.10
2018-06-27T13:47:56.852Z,0.80
2018-06-27T13:50:25.985Z,0.90
2018-06-27T13:52:56.115Z,1.10
2018-06-27T13:55:25.259Z,1.10
2018-06-27T13:57:54.381Z,0.80
2018-06-27T14:00:23.525Z,0.90
2018-06-27T14:02:52.630Z,4.80
2018-06-27T14:05:21.716Z,3.03
2018-06-27T14:07:50.817Z,2.40
2018-06-27T14:10:19.921Z,1.30
2018-06-27T14:12:49.056Z,1.45
2018-06-27T14:15:18.153Z,1.25
2018-06-27T14:17:47.264Z,1.20
2018-06-27T14:20:16.349Z,8.40
2018-06-27T14:22:45.457Z,2.00
2018-06-27T14:25:14.601Z,1.40
2018-06-27T14:27:43.697Z,2.13
2018-06-27T14:30:12.776Z,2.00
2018-06-27T14:32:41.894Z,0.97
2018-06-27T14:35:10.985Z,1.20
2018-06-27T14:37:40.174Z,4.37
2018-06-27T14:40:09.315Z,4.05
2018-06-27T14:42:38.365Z,1.40
2018-06-27T14:45:07.911Z,7.30
2018-06-27T14:47:37.022Z,5.47
2018-06-27T14:50:06.129Z,1.37
2018-06-27T14:52:35.236Z,1.05
2018-06-27T14:55:04.389Z,1.20
2018-06-27T14:57:33.477Z,1.50
2018-06-27T15:00:02.574Z,1.12
2018-06-27T15:02:31.663Z,1.55
2018-06-27T15:05:00.785Z,2.50
2018-06-27T15:07:29.866Z,5.93
2018-06-27T15:09:59.043Z,1.73
2018-06-27T15:12:28.137Z,1.37
2018-06-27T15:14:57.233Z,1.57
2018-06-27T15:17:26.316Z,1.60
2018-06-27T15:19:55.423Z,1.25
2018-06-27T15:22:24.501Z,2.83
2018-06-27T15:24:53.612Z,2.00
2018-06-27T15:27:22.676Z,1.77
2018-06-27T15:29:51.776Z,1.30
2018-06-27T15:32:20.861Z,2.07
2018-06-27T15:34:49.967Z,1.27
2018-06-27T15:37:19.040Z,3.00
2018-06-27T15:39:48.144Z,1.70
2018-06-27T15:42:17.241Z,1.25
2018-06-27T15:44:46.376Z,1.40
2018-06-27T15:47:15.473Z,1.37
2018-06-27T15:49:44.576Z,2.15
2018-06-27T15:52:13.681Z,8.17
2018-06-27T15:54:42.836Z,4.03
2018-06-27T15:57:11.920Z,1.53
2018-06-27T15:59:48.391Z,6.57
2018-06-27T16:02:17.481Z,2.13
2018-06-27T16:04:46.584Z,1.43
2018-06-27T16:07:15.713Z,1.73
2018-06-27T16:09:44.813Z,1.27
2018-06-27T16:12:13.935Z,1.30
2018-06-27T16:14:43.026Z,1.85
2018-06-27T16:17:12.324Z,2.03
2018-06-27T16:19:41.213Z,1.67
2018-06-27T16:22:10.313Z,1.10
2018-06-27T16:24:39.400Z,7.07
2018-06-27T16:27:08.521Z,2.10
2018-06-27T16:29:37.656Z,3.87
2018-06-27T16:32:06.692Z,3.57
2018-06-27T16:34:35.777Z,4.50
2018-06-27T16:37:04.915Z,2.20
2018-06-27T16:39:34.009Z,1.97
2018-06-27T16:42:03.114Z,1.37
2018-06-27T16:44:32.216Z,1.53
2018-06-27T16:47:01.300Z,9.63
2018-06-27T16:49:30.380Z,2.30
2018-06-27T16:51:59.493Z,2.20
2018-06-27T16:54:28.600Z,1.43
2018-06-27T16:56:57.701Z,1.47
2018-06-27T16:59:26.777Z,1.42
2018-06-27T17:01:55.907Z,1.37
2018-06-27T17:04:24.992Z,1.10
2018-06-27T17:06:54.196Z,1.67
2018-06-27T17:09:23.229Z,1.57
2018-06-27T17:11:52.333Z,1.03
2018-06-27T17:14:22.392Z,1.10
2018-06-27T17:16:51.496Z,1.30
2018-06-27T17:19:20.604Z,1.00
2018-06-27T17:21:49.704Z,1.40
2018-06-27T17:24:18.808Z,2.37
2018-06-27T17:26:47.881Z,2.70
2018-06-27T17:29:17.057Z,1.40
2018-06-27T17:31:46.141Z,2.47
2018-06-27T17:34:15.241Z,1.30
2018-06-27T17:36:44.328Z,1.60
2018-06-27T17:39:13.561Z,1.50
2018-06-27T17:41:42.654Z,2.80
2018-06-27T17:44:11.756Z,2.50
2018-06-27T17:46:40.865Z,1.60
2018-06-27T17:49:09.981Z,1.72
2018-06-27T17:51:39.096Z,1.25
2018-06-27T17:54:08.232Z,1.60
2018-06-27T17:56:37.317Z,1.55
2018-06-27T17:59:06.657Z,1.30
2018-06-27T18:01:35.869Z,1.30
2018-06-27T18:04:04.951Z,1.30
2018-06-27T18:06:34.033Z,1.43
2018-06-27T18:09:05.022Z,1.03
2018-06-27T18:11:34.113Z,1.20
2018-06-27T18:14:03.345Z,1.35
2018-06-27T18:16:32.432Z,1.80
2018-06-27T18:19:01.549Z,1.20
2018-06-27T18:21:30.680Z,1.25
2018-06-27T18:23:59.772Z,6.37
2018-06-27T18:26:28.879Z,1.10
2018-06-27T18:28:57.971Z,1.30
2018-06-27T18:31:27.089Z,1.17
2018-06-27T18:33:56.298Z,1.10
2018-06-27T18:36:26.335Z,1.20
2018-06-27T18:38:56.554Z,1.40
2018-06-27T18:41:26.865Z,1.40
2018-06-27T18:43:56.038Z,1.00
2018-06-27T18:46:25.128Z,0.90
2018-06-27T18:48:54.213Z,3.75
2018-06-27T18:51:23.352Z,1.90
2018-06-27T18:53:52.579Z,1.40
2018-06-27T18:56:22.593Z,1.27
2018-06-27T18:58:52.612Z,1.33
2018-06-27T19:01:21.919Z,1.10
2018-06-27T19:03:51.056Z,1.60
2018-06-27T19:06:20.525Z,1.00
2018-06-27T19:08:49.785Z,1.30
2018-06-27T19:11:18.892Z,1.25
2018-06-27T19:13:48.017Z,1.20
2018-06-27T19:16:17.148Z,1.40
2018-06-27T19:18:46.241Z,1.13
2018-06-27T19:21:15.374Z,1.57
2018-06-27T19:23:44.457Z,1.37
2018-06-27T19:26:13.564Z,0.90
2018-06-27T19:28:42.657Z,1.20
2018-06-27T19:31:11.768Z,0.90
2018-06-27T19:33:40.860Z,1.20
2018-06-27T19:36:09.997Z,1.37
2018-06-27T19:38:39.100Z,1.40
2018-06-27T19:41:08.225Z,1.50
2018-06-27T19:43:37.289Z,1.63
2018-06-27T19:46:06.569Z,1.27
2018-06-27T19:48:35.688Z,1.80
2018-06-27T19:51:04.784Z,1.75
2018-06-27T19:53:33.938Z,2.07
2018-06-27T19:56:03.062Z,2.13
2018-06-27T19:58:32.212Z,2.20
2018-06-27T20:01:01.308Z,2.00
2018-06-27T20:03:30.429Z,1.90
2018-06-27T20:05:59.509Z,1.72
2018-06-27T20:08:28.653Z,1.90
2018-06-27T20:10:57.744Z,1.67
2018-06-27T20:13:26.869Z,2.10
2018-06-27T20:15:56.039Z,2.00
2018-06-27T20:18:25.085Z,1.70
2018-06-27T20:20:54.922Z,1.50
2018-06-27T20:23:24.033Z,1.40
2018-06-27T20:25:53.165Z,1.52
2018-06-27T20:28:22.281Z,1.50
2018-06-27T20:30:52.161Z,2.10
2018-06-27T20:33:21.277Z,2.30
2018-06-27T20:35:50.373Z,1.30
2018-06-27T20:38:19.496Z,1.47
2018-06-27T20:40:48.589Z,1.53
2018-06-27T20:43:17.692Z,1.77
2018-06-27T20:45:47.218Z,1.90
2018-06-27T20:48:16.317Z,1.85
2018-06-27T20:50:46.256Z,1.73
2018-06-27T20:53:15.369Z,1.60
2018-06-27T20:55:44.477Z,1.70
2018-06-27T20:58:13.558Z,2.07
2018-06-27T21:00:42.662Z,1.77
2018-06-27T21:03:11.820Z,1.90
2018-06-27T21:05:40.976Z,1.32
2018-06-27T21:08:10.049Z,1.60
2018-06-27T21:10:39.165Z,1.30
2018-06-27T21:13:08.266Z,1.90
2018-06-27T21:15:38.177Z,1.50
2018-06-27T21:18:07.288Z,1.60
2018-06-27T21:20:36.405Z,1.65
2018-06-27T21:23:05.636Z,1.52
2018-06-27T21:25:34.749Z,1.40
2018-06-27T21:28:04.565Z,1.77
2018-06-27T21:30:33.668Z,1.70
2018-06-27T21:33:02.791Z,1.80
2018-06-27T21:35:31.912Z,1.60
2018-06-27T21:38:01.073Z,1.57
2018-06-27T21:40:30.176Z,1.75
2018-06-27T21:42:59.264Z,2.07
2018-06-27T21:45:28.382Z,1.75
2018-06-27T21:47:57.462Z,1.92
2018-06-27T21:50:26.561Z,2.20
2018-06-27T21:52:55.828Z,1.90
2018-06-27T21:55:24.954Z,1.90
2018-06-27T21:57:54.040Z,2.25
2018-06-27T22:00:25.013Z,2.03
2018-06-27T22:02:54.280Z,2.77
2018-06-27T22:05:23.393Z,2.50
2018-06-27T22:07:52.481Z,2.33
2018-06-27T22:10:21.563Z,1.60
2018-06-27T22:12:50.725Z,1.80
2018-06-27T22:15:19.807Z,1.87
2018-06-27T22:17:49.029Z,2.60
2018-06-27T22:20:18.101Z,1.70
2018-06-27T22:22:47.197Z,2.50
2018-06-27T22:25:16.308Z,1.70
2018-06-27T22:27:45.412Z,1.93
2018-06-27T22:30:14.514Z,1.40
2018-06-27T22:32:43.612Z,1.93
2018-06-27T22:35:12.689Z,1.80
2018-06-27T22:37:41.785Z,1.60
2018-06-27T22:40:10.845Z,1.60
2018-06-27T22:42:39.940Z,1.93
2018-06-27T22:45:09.024Z,1.93
2018-06-27T22:47:38.149Z,1.93
2018-06-27T22:50:07.217Z,2.17
2018-06-27T22:52:36.308Z,1.93
2018-06-27T22:55:05.409Z,2.00
2018-06-27T22:57:34.516Z,2.23
2018-06-27T23:00:03.672Z,2.20
2018-06-27T23:02:32.506Z,3.10
2018-06-27T23:05:01.574Z,2.33
2018-06-27T23:07:30.748Z,2.30
2018-06-27T23:09:59.861Z,1.83
2018-06-27T23:12:29.348Z,2.43
2018-06-27T23:14:58.484Z,2.70
2018-06-27T23:17:27.646Z,2.37
2018-06-27T23:19:56.760Z,2.53
2018-06-27T23:22:37.236Z,2.20
2018-06-27T23:25:06.396Z,2.43
2018-06-27T23:27:36.457Z,2.00
2018-06-27T23:30:06.505Z,2.50
2018-06-27T23:32:35.621Z,2.20
2018-06-27T23:35:04.860Z,2.52
2018-06-27T23:37:33.992Z,2.13
2018-06-27T23:40:03.119Z,2.73
2018-06-27T23:42:32.314Z,2.03
2018-06-27T23:45:01.896Z,2.37
2018-06-27T23:47:31.487Z,2.90
2018-06-27T23:50:00.609Z,2.62
2018-06-27T23:52:29.716Z,2.37
2018-06-27T23:54:58.866Z,1.98
2018-06-27T23:57:27.988Z,2.63
2018-06-27T23:59:57.092Z,1.90
